Time;durP1;ratioP1;P1;durP2;ratioP2;P2;SDS_P1;SDS_P2;PMS_P1;PMS_P2;Temp;Humidity;BMP_temperature;BMP_pressure;BME280_temperature;BME280_humidity;BME280_pressure;Samples;Min_cycle;Max_cycle;Signal;HPM_P1;HPM_P2
2022/11/24 00:01:48;;;;;;;0.10;0.10;;;8.50;99.90;;;;;;4997422;28;20042;-68
2022/11/24 00:04:14;;;;;;;0.05;0.05;;;8.50;99.90;;;;;;5003027;28;20394;-68
2022/11/24 00:06:39;;;;;;;0.85;0.85;;;8.50;99.90;;;;;;5010327;28;20099;-68
2022/11/24 00:09:05;;;;;;;0.10;0.10;;;8.50;99.90;;;;;;4996625;28;20100;-68
2022/11/24 00:11:34;;;;;;;0.05;0.05;;;8.50;99.90;;;;;;4980474;28;20045;-68
2022/11/24 00:14:01;;;;;;;0.10;0.10;;;8.40;99.90;;;;;;4990705;28;20042;-68
2022/11/24 00:16:28;;;;;;;0.75;0.75;;;8.40;99.90;;;;;;4996902;28;20094;-68
2022/11/24 00:18:57;;;;;;;0.40;0.40;;;8.40;99.90;;;;;;4987241;28;20053;-68
2022/11/24 00:21:24;;;;;;;0.20;0.20;;;8.30;99.90;;;;;;5010047;28;20033;-68
2022/11/24 00:23:51;;;;;;;9.13;2.85;;;8.30;99.90;;;;;;5003735;28;20066;-68
2022/11/24 00:26:19;;;;;;;0.30;0.30;;;8.30;99.90;;;;;;4998853;28;20053;-68
2022/11/24 00:28:46;;;;;;;0.30;0.30;;;8.30;99.90;;;;;;5002995;28;20144;-68
2022/11/24 00:31:20;;;;;;;0.10;0.10;;;8.40;99.90;;;;;;5000213;28;20061;-68
2022/11/24 00:33:48;;;;;;;27.30;1.55;;;8.30;99.90;;;;;;5002137;28;20049;-68
2022/11/24 00:36:15;;;;;;;1.83;1.73;;;8.30;99.90;;;;;;5011944;28;20042;-68
2022/11/24 00:38:41;;;;;;;0.20;0.20;;;8.30;99.90;;;;;;5012620;28;20060;-68
2022/11/24 00:41:07;;;;;;;0.10;0.10;;;8.40;99.90;;;;;;5013174;28;20152;-68
2022/11/24 00:43:32;;;;;;;0.22;0.22;;;8.40;99.90;;;;;;5012802;28;20503;-68
2022/11/24 00:45:58;;;;;;;0.10;0.10;;;8.40;99.90;;;;;;5003467;28;20035;-68
2022/11/24 00:48:24;;;;;;;0.10;0.10;;;8.30;99.90;;;;;;4994046;28;20053;-68
2022/11/24 00:50:57;;;;;;;0.28;0.22;;;8.40;99.90;;;;;;4993219;28;20050;-68
2022/11/24 00:53:24;;;;;;;0.10;0.10;;;8.40;99.90;;;;;;4999840;28;20050;-68
2022/11/24 00:55:50;;;;;;;0.43;0.43;;;8.40;99.90;;;;;;5006970;28;20042;-68
2022/11/24 00:58:15;;;;;;;0.98;0.60;;;8.40;99.90;;;;;;4997748;28;20046;-68
2022/11/24 01:00:41;;;;;;;0.50;0.47;;;8.40;99.90;;;;;;5009275;28;20052;-68
2022/11/24 01:03:07;;;;;;;1.38;1.10;;;8.50;99.90;;;;;;4994271;28;20042;-68
2022/11/24 01:05:35;;;;;;;0.32;0.32;;;8.50;99.90;;;;;;4993038;28;20457;-68
2022/11/24 01:08:01;;;;;;;1.38;0.70;;;8.50;99.90;;;;;;4997899;28;20446;-68
2022/11/24 01:10:27;;;;;;;0.55;0.55;;;8.60;99.90;;;;;;5003140;28;20042;-68
2022/11/24 01:12:52;;;;;;;2.20;1.40;;;8.60;99.90;;;;;;4994107;28;20038;-67
2022/11/24 01:15:18;;;;;;;0.10;0.10;;;8.70;99.90;;;;;;5003757;28;20897;-68
2022/11/24 01:17:44;;;;;;;0.30;0.30;;;8.60;99.90;;;;;;4992813;28;20514;-67
2022/11/24 01:20:10;;;;;;;0.10;0.10;;;8.70;99.90;;;;;;5008714;28;20046;-67
2022/11/24 01:22:37;;;;;;;0.20;0.20;;;8.70;99.90;;;;;;4996499;28;20449;-68
2022/11/24 01:25:05;;;;;;;0.40;0.40;;;8.70;99.90;;;;;;5007849;28;20120;-68
2022/11/24 01:27:31;;;;;;;1.38;1.27;;;8.80;99.90;;;;;;5012966;28;20050;-68
2022/11/24 01:29:56;;;;;;;0.55;0.55;;;8.70;99.90;;;;;;5012793;28;20068;-67
2022/11/24 01:32:22;;;;;;;0.00;0.00;;;8.70;99.90;;;;;;5000066;28;20050;-68
2022/11/24 01:34:48;;;;;;;0.10;0.10;;;8.80;99.90;;;;;;4991139;28;20096;-68
2022/11/24 01:37:14;;;;;;;0.10;0.10;;;8.70;99.90;;;;;;4997764;28;20410;-69
2022/11/24 01:39:39;;;;;;;0.10;0.10;;;8.80;99.90;;;;;;5009698;28;20125;-69
2022/11/24 01:42:06;;;;;;;1.25;0.90;;;8.70;99.90;;;;;;5006529;28;20050;-70
2022/11/24 01:44:31;;;;;;;0.30;0.30;;;8.70;99.90;;;;;;5006000;28;20061;-70
2022/11/24 01:47:04;;;;;;;0.77;0.77;;;8.70;99.90;;;;;;5011421;28;20465;-69
2022/11/24 01:49:49;;;;;;;0.50;0.50;;;8.80;99.90;;;;;;5007715;28;20037;-70
2022/11/24 01:52:26;;;;;;;0.10;0.10;;;8.80;99.90;;;;;;5008332;28;20445;-70
2022/11/24 01:54:55;;;;;;;0.40;0.40;;;8.80;99.90;;;;;;5003962;28;20524;-70
2022/11/24 01:57:29;;;;;;;0.38;0.38;;;8.80;99.90;;;;;;5006068;28;20049;-70
2022/11/24 02:00:00;;;;;;;0.13;0.13;;;8.70;99.90;;;;;;4987262;28;20050;-70
2022/11/24 02:02:28;;;;;;;0.10;0.10;;;8.70;99.90;;;;;;5000199;28;20050;-70
2022/11/24 02:04:58;;;;;;;1.98;1.80;;;8.70;99.90;;;;;;5010249;28;20042;-70
2022/11/24 02:07:24;;;;;;;0.00;0.00;;;8.70;99.90;;;;;;5006944;28;20052;-69
2022/11/24 02:09:54;;;;;;;0.15;0.15;;;8.70;99.90;;;;;;4995761;28;20096;-69
2022/11/24 02:12:22;;;;;;;0.10;0.10;;;8.70;99.90;;;;;;5007838;28;20042;-70
2022/11/24 02:14:48;;;;;;;0.10;0.10;;;8.70;99.90;;;;;;4998576;28;20624;-70
2022/11/24 02:17:14;;;;;;;0.65;0.65;;;8.70;99.90;;;;;;5013997;28;20044;-69
2022/11/24 02:19:39;;;;;;;0.00;0.00;;;8.70;99.90;;;;;;5016493;28;20041;-70
2022/11/24 02:22:14;;;;;;;0.90;0.82;;;8.60;99.90;;;;;;4999843;28;20050;-70
2022/11/24 02:24:43;;;;;;;0.10;0.10;;;8.60;99.90;;;;;;5005450;28;20042;-70
2022/11/24 02:27:09;;;;;;;0.10;0.10;;;8.70;99.90;;;;;;5007616;28;20072;-70
2022/11/24 02:29:36;;;;;;;2.33;2.22;;;8.60;99.90;;;;;;5001542;28;20053;-69
2022/11/24 02:32:05;;;;;;;0.85;0.75;;;8.60;99.90;;;;;;5001964;28;20137;-68
2022/11/24 02:34:31;;;;;;;0.10;0.10;;;8.60;99.90;;;;;;5009359;28;20057;-68
2022/11/24 02:36:56;;;;;;;1.02;0.82;;;8.60;99.90;;;;;;4995505;28;20033;-68
2022/11/24 02:39:22;;;;;;;0.10;0.10;;;8.60;99.90;;;;;;5011874;28;20034;-68
2022/11/24 02:42:15;;;;;;;0.00;0.00;;;8.60;99.90;;;;;;4999976;28;20470;-68
2022/11/24 02:44:47;;;;;;;0.15;0.15;;;8.50;99.90;;;;;;5003816;28;20088;-68
2022/11/24 02:47:13;;;;;;;3.63;1.88;;;8.50;99.90;;;;;;5008610;28;20041;-69
2022/11/24 02:49:38;;;;;;;0.10;0.10;;;8.60;99.90;;;;;;5008472;28;20486;-68
2022/11/24 02:52:04;;;;;;;1.00;1.00;;;8.50;99.90;;;;;;5004783;28;20485;-68
2022/11/24 02:54:30;;;;;;;0.00;0.00;;;8.50;99.90;;;;;;4989412;28;20478;-68
2022/11/24 02:56:56;;;;;;;1.23;1.10;;;8.50;99.90;;;;;;4998964;28;20056;-68
2022/11/24 02:59:22;;;;;;;0.10;0.10;;;8.50;99.90;;;;;;4987937;28;20049;-68
2022/11/24 03:01:48;;;;;;;0.10;0.10;;;8.40;99.90;;;;;;4998219;28;20501;-68
2022/11/24 03:04:13;;;;;;;0.10;0.10;;;8.50;99.90;;;;;;5009363;28;20109;-68
2022/11/24 03:06:39;;;;;;;0.10;0.10;;;8.40;99.90;;;;;;5011743;28;20143;-68
2022/11/24 03:09:05;;;;;;;0.10;0.10;;;8.40;99.90;;;;;;5000961;28;20045;-68
2022/11/24 03:11:31;;;;;;;0.10;0.10;;;8.40;99.90;;;;;;5007554;28;20798;-68
2022/11/24 03:13:57;;;;;;;0.10;0.10;;;8.40;99.90;;;;;;5003200;28;20050;-68
2022/11/24 03:16:22;;;;;;;0.10;0.10;;;8.30;99.90;;;;;;5008078;28;20046;-68
2022/11/24 03:18:50;;;;;;;9.32;2.10;;;8.30;99.90;;;;;;4998252;28;20035;-68
2022/11/24 03:21:16;;;;;;;0.40;0.40;;;8.30;99.90;;;;;;5010494;28;20084;-68
2022/11/24 03:23:41;;;;;;;0.28;0.28;;;8.30;99.90;;;;;;4998732;28;20066;-68
2022/11/24 03:26:16;;;;;;;0.10;0.10;;;8.30;99.90;;;;;;4993777;28;20134;-68
2022/11/24 03:28:41;;;;;;;0.17;0.17;;;8.30;99.90;;;;;;5004498;28;20053;-68
2022/11/24 03:31:08;;;;;;;5.18;2.15;;;8.30;99.90;;;;;;5004357;28;20042;-69
2022/11/24 03:33:34;;;;;;;0.73;0.73;;;8.30;99.90;;;;;;5002533;28;20561;-68
2022/11/24 03:36:00;;;;;;;0.08;0.08;;;8.40;99.90;;;;;;4997613;28;20058;-68
2022/11/24 03:38:25;;;;;;;0.10;0.10;;;8.40;99.90;;;;;;4998042;28;20487;-68
2022/11/24 03:40:51;;;;;;;0.47;0.47;;;8.30;99.90;;;;;;5004800;28;20074;-68
2022/11/24 03:43:18;;;;;;;0.35;0.35;;;8.40;99.90;;;;;;4996884;28;20080;-68
2022/11/24 03:45:48;;;;;;;0.08;0.08;;;8.40;99.90;;;;;;5009031;28;20045;-68
2022/11/24 03:48:15;;;;;;;0.00;0.00;;;8.40;99.90;;;;;;5010325;28;20124;-68
2022/11/24 03:50:41;;;;;;;0.10;0.10;;;8.40;99.90;;;;;;5008166;28;20053;-68
2022/11/24 03:53:07;;;;;;;0.95;0.95;;;8.40;99.90;;;;;;5001451;28;20037;-68
2022/11/24 03:55:33;;;;;;;0.10;0.10;;;8.40;99.90;;;;;;5010651;28;20037;-68
2022/11/24 03:57:58;;;;;;;0.10;0.10;;;8.50;99.90;;;;;;5010534;28;20041;-68
2022/11/24 04:00:24;;;;;;;0.93;0.85;;;8.40;99.90;;;;;;5010043;28;20046;-68
2022/11/24 04:02:49;;;;;;;0.30;0.30;;;8.40;99.90;;;;;;5017099;28;20049;-68
2022/11/24 04:05:15;;;;;;;0.10;0.10;;;8.40;99.90;;;;;;5012139;28;20066;-68
2022/11/24 04:07:41;;;;;;;4.43;1.10;;;8.40;99.90;;;;;;5012443;28;20391;-68
2022/11/24 04:10:07;;;;;;;0.50;0.50;;;8.40;99.90;;;;;;5017125;28;20088;-68
2022/11/24 04:12:45;;;;;;;0.20;0.20;;;8.40;99.90;;;;;;5009108;28;20050;-68
2022/11/24 04:15:12;;;;;;;0.30;0.30;;;8.50;99.90;;;;;;4997274;28;20042;-68
2022/11/24 04:17:38;;;;;;;0.10;0.10;;;8.40;99.90;;;;;;5014408;28;20444;-68
2022/11/24 04:20:04;;;;;;;0.10;0.10;;;8.40;99.90;;;;;;5012890;28;20128;-68
2022/11/24 04:22:30;;;;;;;0.40;0.40;;;8.40;99.90;;;;;;5010374;28;20038;-68
2022/11/24 04:24:56;;;;;;;0.10;0.10;;;8.40;99.90;;;;;;5015694;28;20048;-68
2022/11/24 04:27:21;;;;;;;0.00;0.00;;;8.30;99.90;;;;;;4989680;28;20074;-68
2022/11/24 04:29:47;;;;;;;0.10;0.10;;;8.40;99.90;;;;;;4997339;28;20493;-68
2022/11/24 04:32:12;;;;;;;4.85;2.05;;;8.30;99.90;;;;;;5010456;28;20403;-68
2022/11/24 04:34:38;;;;;;;2.53;1.65;;;8.30;99.90;;;;;;5013021;28;20068;-68
2022/11/24 04:37:03;;;;;;;0.13;0.13;;;8.40;99.90;;;;;;5008385;28;20120;-68
2022/11/24 04:39:29;;;;;;;1.15;1.00;;;8.40;99.90;;;;;;5024068;28;20066;-68
2022/11/24 04:41:55;;;;;;;0.00;0.00;;;8.40;99.90;;;;;;5013721;28;20053;-68
2022/11/24 04:44:21;;;;;;;0.10;0.10;;;8.40;99.90;;;;;;5014211;28;20133;-68
2022/11/24 04:46:46;;;;;;;0.00;0.00;;;8.40;99.90;;;;;;5005852;28;20451;-68
2022/11/24 04:49:12;;;;;;;0.00;0.00;;;8.30;99.90;;;;;;5022498;28;20393;-68
2022/11/24 04:51:38;;;;;;;0.57;0.57;;;8.40;99.90;;;;;;5017806;28;20037;-68
2022/11/24 04:54:05;;;;;;;0.10;0.10;;;8.30;99.90;;;;;;4991563;28;20076;-67
2022/11/24 04:56:31;;;;;;;0.08;0.08;;;8.30;99.90;;;;;;5015691;28;20472;-68
2022/11/24 04:58:56;;;;;;;0.20;0.20;;;8.30;99.90;;;;;;5009724;28;20038;-68
2022/11/24 05:01:22;;;;;;;0.00;0.00;;;8.30;99.90;;;;;;4998199;28;20398;-68
2022/11/24 05:03:47;;;;;;;0.32;0.32;;;8.30;99.90;;;;;;5014466;28;20116;-68
2022/11/24 05:06:13;;;;;;;0.10;0.10;;;8.20;99.90;;;;;;5006254;28;20086;-68
2022/11/24 05:08:38;;;;;;;0.10;0.10;;;8.20;99.90;;;;;;5024806;28;20038;-68
2022/11/24 05:11:05;;;;;;;0.10;0.10;;;8.10;99.90;;;;;;5009154;28;20046;-68
2022/11/24 05:13:31;;;;;;;0.63;0.63;;;8.10;99.90;;;;;;5006603;28;20390;-68
2022/11/24 05:15:58;;;;;;;0.00;0.00;;;8.10;99.90;;;;;;5012059;28;20049;-68
2022/11/24 05:18:24;;;;;;;0.10;0.10;;;8.10;99.90;;;;;;5011124;28;20128;-68
2022/11/24 05:20:50;;;;;;;0.10;0.10;;;8.10;99.90;;;;;;4986527;28;20134;-68
2022/11/24 05:23:15;;;;;;;0.55;0.40;;;8.10;99.90;;;;;;5013384;28;20088;-68
2022/11/24 05:25:41;;;;;;;0.10;0.10;;;8.10;99.90;;;;;;4994643;28;20100;-68
2022/11/24 05:28:08;;;;;;;2.33;1.35;;;8.10;99.90;;;;;;5026322;28;20482;-68
2022/11/24 05:30:37;;;;;;;0.15;0.15;;;8.10;99.90;;;;;;5015045;28;20057;-68
2022/11/24 05:33:17;;;;;;;0.10;0.10;;;8.10;99.90;;;;;;5011413;28;20056;-68
2022/11/24 05:35:44;;;;;;;0.10;0.10;;;8.10;99.90;;;;;;4977692;28;20062;-67
2022/11/24 05:38:10;;;;;;;0.47;0.47;;;8.10;99.90;;;;;;4962774;28;20133;-68
2022/11/24 05:40:35;;;;;;;0.73;0.73;;;8.10;99.90;;;;;;4961047;28;20129;-68
2022/11/24 05:43:01;;;;;;;1.00;1.00;;;8.10;99.90;;;;;;4972202;28;20042;-68
2022/11/24 05:45:27;;;;;;;1.92;1.75;;;8.10;99.90;;;;;;4966273;28;20046;-68
2022/11/24 05:47:52;;;;;;;0.10;0.10;;;8.10;99.90;;;;;;4973871;28;20039;-67
2022/11/24 05:50:20;;;;;;;0.50;0.50;;;8.10;99.90;;;;;;4969033;28;20050;-67
2022/11/24 05:52:46;;;;;;;0.25;0.25;;;8.00;99.90;;;;;;4963509;28;20066;-67
2022/11/24 05:55:13;;;;;;;0.00;0.00;;;8.10;99.90;;;;;;4972806;28;20094;-67
2022/11/24 05:57:39;;;;;;;0.10;0.10;;;8.00;99.90;;;;;;4960864;28;20082;-67
2022/11/24 06:00:06;;;;;;;0.10;0.10;;;8.10;99.90;;;;;;4959601;28;20073;-67
2022/11/24 06:02:31;;;;;;;0.77;0.75;;;8.10;99.90;;;;;;5001004;28;20260;-67
2022/11/24 06:04:57;;;;;;;0.10;0.10;;;8.10;99.90;;;;;;4964378;28;20118;-67
2022/11/24 06:07:23;;;;;;;0.20;0.20;;;8.10;99.90;;;;;;4957113;28;20474;-67
2022/11/24 06:09:49;;;;;;;0.28;0.28;;;8.10;99.90;;;;;;4960317;28;20122;-68
2022/11/24 06:12:15;;;;;;;0.00;0.00;;;8.20;99.90;;;;;;4976032;28;20145;-68
2022/11/24 06:14:41;;;;;;;0.77;0.65;;;8.20;99.90;;;;;;4966300;28;20391;-69
2022/11/24 06:17:08;;;;;;;0.10;0.10;;;8.10;99.90;;;;;;4963930;28;20114;-68
2022/11/24 06:19:34;;;;;;;0.10;0.10;;;8.20;99.90;;;;;;4955956;28;20039;-67
2022/11/24 06:21:59;;;;;;;0.10;0.10;;;8.20;99.90;;;;;;4956257;28;20054;-68
2022/11/24 06:24:25;;;;;;;0.28;0.28;;;8.20;99.90;;;;;;4971795;28;20478;-68
2022/11/24 06:26:51;;;;;;;0.17;0.17;;;8.20;99.90;;;;;;4970638;28;20052;-68
2022/11/24 06:29:16;;;;;;;0.10;0.10;;;8.20;99.90;;;;;;4956457;28;20055;-68
2022/11/24 06:31:42;;;;;;;0.20;0.20;;;8.20;99.90;;;;;;4965936;28;20521;-68
2022/11/24 06:34:10;;;;;;;0.00;0.00;;;8.10;99.90;;;;;;4970427;28;20030;-68
2022/11/24 06:36:37;;;;;;;0.10;0.10;;;8.10;99.90;;;;;;5012225;28;20116;-68
2022/11/24 06:39:05;;;;;;;0.10;0.10;;;8.20;99.90;;;;;;4999739;28;20046;-68
2022/11/24 06:41:31;;;;;;;0.00;0.00;;;8.20;99.90;;;;;;5001418;28;20116;-68
2022/11/24 06:43:57;;;;;;;0.52;0.52;;;8.10;99.90;;;;;;4987702;28;20451;-68
2022/11/24 06:46:22;;;;;;;0.15;0.15;;;8.10;99.90;;;;;;5008621;28;20046;-69
2022/11/24 06:48:54;;;;;;;0.10;0.10;;;8.10;99.90;;;;;;4990147;28;20513;-68
2022/11/24 06:51:19;;;;;;;0.00;0.00;;;8.10;99.90;;;;;;4993479;28;20081;-68
2022/11/24 06:53:45;;;;;;;0.10;0.10;;;8.10;99.90;;;;;;5012905;28;20469;-67
2022/11/24 06:56:13;;;;;;;0.35;0.35;;;8.10;99.90;;;;;;5009713;28;20038;-68
2022/11/24 06:58:43;;;;;;;0.17;0.17;;;8.00;99.90;;;;;;4999222;28;20069;-67
2022/11/24 07:01:16;;;;;;;0.10;0.10;;;8.00;99.90;;;;;;4983108;28;20441;-67
2022/11/24 07:03:43;;;;;;;0.10;0.10;;;8.00;99.90;;;;;;5005314;28;20176;-68
2022/11/24 07:06:09;;;;;;;0.00;0.00;;;7.90;99.90;;;;;;5009677;28;20042;-68
2022/11/24 07:08:34;;;;;;;0.10;0.10;;;7.90;99.90;;;;;;5010047;28;20036;-68
2022/11/24 07:11:05;;;;;;;0.52;0.52;;;7.90;99.90;;;;;;4986254;28;20061;-67
2022/11/24 07:13:30;;;;;;;0.10;0.10;;;7.90;99.90;;;;;;5005520;28;20072;-68
2022/11/24 07:15:56;;;;;;;0.10;0.10;;;7.90;99.90;;;;;;4992188;28;20054;-68
2022/11/24 07:18:21;;;;;;;0.00;0.00;;;7.90;99.90;;;;;;4992916;28;20045;-68
2022/11/24 07:20:47;;;;;;;0.10;0.10;;;7.90;99.90;;;;;;4998098;28;20042;-68
2022/11/24 07:23:12;;;;;;;0.10;0.10;;;7.90;99.90;;;;;;4997940;28;20045;-68
2022/11/24 07:25:38;;;;;;;0.10;0.10;;;7.90;99.90;;;;;;5009399;28;20057;-68
2022/11/24 07:28:04;;;;;;;0.10;0.10;;;7.90;99.90;;;;;;5003184;28;20053;-68
2022/11/24 07:30:30;;;;;;;0.10;0.10;;;7.90;99.90;;;;;;4992848;28;20046;-68
2022/11/24 07:33:02;;;;;;;0.00;0.00;;;7.90;99.90;;;;;;5006825;28;20089;-68
2022/11/24 07:35:29;;;;;;;0.10;0.10;;;7.90;99.90;;;;;;5001442;28;20052;-68
2022/11/24 07:37:56;;;;;;;0.10;0.10;;;8.00;99.90;;;;;;5000571;28;20050;-68
2022/11/24 07:40:23;;;;;;;0.35;0.35;;;8.00;99.90;;;;;;5007580;28;20038;-68
2022/11/24 07:42:48;;;;;;;0.10;0.10;;;8.00;99.90;;;;;;4984537;28;20056;-68
2022/11/24 07:45:14;;;;;;;0.00;0.00;;;8.00;99.90;;;;;;5004857;28;20117;-68
2022/11/24 07:47:40;;;;;;;0.10;0.10;;;8.00;99.90;;;;;;4991652;28;20054;-68
2022/11/24 07:50:09;;;;;;;0.10;0.10;;;8.00;99.90;;;;;;5006775;28;20519;-68
2022/11/24 07:52:36;;;;;;;0.00;0.00;;;8.10;99.90;;;;;;5000115;28;20042;-68
2022/11/24 07:55:01;;;;;;;0.00;0.00;;;8.10;99.90;;;;;;5010035;28;20537;-68
2022/11/24 07:57:30;;;;;;;0.10;0.10;;;8.10;99.90;;;;;;5008647;28;20041;-68
2022/11/24 07:59:56;;;;;;;0.00;0.00;;;8.10;99.90;;;;;;5008456;28;20056;-68
2022/11/24 08:02:21;;;;;;;0.10;0.10;;;8.10;99.90;;;;;;5009453;28;20049;-68
2022/11/24 08:04:47;;;;;;;0.10;0.10;;;8.20;99.90;;;;;;5002721;28;20046;-68
2022/11/24 08:07:13;;;;;;;0.10;0.10;;;8.30;99.90;;;;;;5002251;28;20046;-67
2022/11/24 08:09:38;;;;;;;1.05;1.05;;;8.30;99.90;;;;;;5002478;28;20121;-68
2022/11/24 08:12:04;;;;;;;0.08;0.08;;;8.40;99.90;;;;;;5002764;28;20104;-68
2022/11/24 08:14:30;;;;;;;0.10;0.10;;;8.40;99.90;;;;;;4996711;28;20042;-68
2022/11/24 08:16:57;;;;;;;0.70;0.57;;;8.50;99.90;;;;;;4980226;28;20077;-68
2022/11/24 08:19:22;;;;;;;0.10;0.10;;;8.50;99.90;;;;;;4997544;28;20085;-68
2022/11/24 08:21:48;;;;;;;1.40;1.30;;;8.50;99.90;;;;;;5008561;28;20069;-68
2022/11/24 08:24:15;;;;;;;0.30;0.30;;;8.50;99.90;;;;;;4992814;28;20044;-68
2022/11/24 08:26:41;;;;;;;0.10;0.10;;;8.60;99.90;;;;;;5006696;28;20053;-68
2022/11/24 08:29:07;;;;;;;0.10;0.10;;;8.60;99.90;;;;;;5010561;28;20069;-68
2022/11/24 08:31:34;;;;;;;0.20;0.20;;;8.60;99.90;;;;;;4997702;28;20073;-68
2022/11/24 08:34:04;;;;;;;0.10;0.10;;;8.60;99.90;;;;;;5001236;28;20034;-68
2022/11/24 08:36:30;;;;;;;0.00;0.00;;;8.60;99.90;;;;;;4991601;28;20489;-68
2022/11/24 08:38:57;;;;;;;0.10;0.10;;;8.60;99.90;;;;;;5004593;28;20050;-67
2022/11/24 08:41:24;;;;;;;0.10;0.10;;;8.70;99.90;;;;;;5008663;28;20045;-68
2022/11/24 08:43:50;;;;;;;0.00;0.00;;;8.60;99.90;;;;;;5009938;28;20418;-68
2022/11/24 08:46:17;;;;;;;1.08;0.98;;;8.60;99.90;;;;;;5007849;28;20049;-68
2022/11/24 08:48:53;;;;;;;1.27;0.73;;;8.70;99.90;;;;;;5005147;28;20087;-67
2022/11/24 08:51:21;;;;;;;1.30;0.47;;;8.60;99.90;;;;;;5010345;28;20563;-68
2022/11/24 08:53:47;;;;;;;0.20;0.20;;;8.60;99.90;;;;;;5005707;28;20038;-68
2022/11/24 08:56:12;;;;;;;0.10;0.10;;;8.60;99.90;;;;;;5001724;28;20068;-68
2022/11/24 08:58:39;;;;;;;4.90;2.63;;;8.60;99.90;;;;;;5006847;28;20038;-68
2022/11/24 09:01:10;;;;;;;0.10;0.10;;;8.70;99.90;;;;;;5007154;28;20499;-68
2022/11/24 09:03:37;;;;;;;0.10;0.10;;;8.70;99.90;;;;;;5003115;28;20061;-68
2022/11/24 09:06:03;;;;;;;0.00;0.00;;;8.70;99.90;;;;;;5008598;28;20042;-68
2022/11/24 09:08:29;;;;;;;0.00;0.00;;;8.70;99.90;;;;;;5014066;28;20101;-68
2022/11/24 09:11:03;;;;;;;0.10;0.10;;;8.70;99.90;;;;;;5011751;28;20049;-68
2022/11/24 09:13:29;;;;;;;0.10;0.10;;;8.70;99.90;;;;;;5004098;28;20041;-68
2022/11/24 09:15:54;;;;;;;0.10;0.10;;;8.70;99.90;;;;;;4995579;28;20052;-68
2022/11/24 09:18:21;;;;;;;0.00;0.00;;;8.70;99.90;;;;;;5007566;28;20049;-67
2022/11/24 09:20:46;;;;;;;0.00;0.00;;;8.70;99.90;;;;;;4992033;28;20371;-68
2022/11/24 09:23:12;;;;;;;0.52;0.47;;;8.80;99.90;;;;;;4995309;28;20053;-68
2022/11/24 09:25:37;;;;;;;0.00;0.00;;;8.70;99.90;;;;;;5003601;28;20050;-68
2022/11/24 09:28:03;;;;;;;0.10;0.10;;;8.70;99.90;;;;;;4998466;28;20045;-68
2022/11/24 09:30:28;;;;;;;0.10;0.10;;;8.70;99.90;;;;;;5013343;28;20040;-68
2022/11/24 09:32:55;;;;;;;0.10;0.10;;;8.70;99.90;;;;;;5013793;28;20124;-68
2022/11/24 09:35:21;;;;;;;0.40;0.40;;;8.70;99.90;;;;;;5014928;28;20108;-68
2022/11/24 09:37:47;;;;;;;0.00;0.00;;;8.80;99.90;;;;;;5005300;28;20061;-67
2022/11/24 09:40:14;;;;;;;0.10;0.10;;;8.80;99.90;;;;;;4999564;28;20046;-68
2022/11/24 09:42:58;;;;;;;0.10;0.10;;;8.80;99.90;;;;;;5001763;28;20070;-67
2022/11/24 09:45:23;;;;;;;0.00;0.00;;;8.80;99.90;;;;;;5006149;28;20041;-68
2022/11/24 09:47:58;;;;;;;0.10;0.10;;;8.90;99.90;;;;;;5011798;28;20050;-68
2022/11/24 09:50:33;;;;;;;0.10;0.10;;;9.00;99.90;;;;;;4993233;28;20140;-68
2022/11/24 09:53:11;;;;;;;0.10;0.10;;;9.10;99.90;;;;;;4996694;28;20097;-68
2022/11/24 09:55:45;;;;;;;0.10;0.10;;;9.10;99.90;;;;;;5004934;28;20049;-68
2022/11/24 09:58:22;;;;;;;;;;;9.10;99.90;;;;;;4989869;28;20062;-68
2022/11/24 10:00:52;;;;;;;0.10;0.10;;;9.10;99.90;;;;;;5002704;28;20301;-68
2022/11/24 10:03:33;;;;;;;0.03;0.03;;;9.10;99.90;;;;;;5010507;28;20050;-68
2022/11/24 10:06:11;;;;;;;0.05;0.05;;;9.10;99.90;;;;;;4995606;28;22642;-67
2022/11/24 10:08:37;;;;;;;0.10;0.10;;;9.20;99.90;;;;;;5007072;28;20498;-68
2022/11/24 10:11:11;;;;;;;0.10;0.10;;;9.30;99.90;;;;;;5008999;28;20049;-68
2022/11/24 10:13:51;;;;;;;0.00;0.00;;;9.30;99.90;;;;;;5006697;28;20046;-68
2022/11/24 10:16:46;;;;;;;0.10;0.10;;;9.30;99.90;;;;;;4984325;28;20524;-68
2022/11/24 10:19:22;;;;;;;0.10;0.10;;;9.40;99.90;;;;;;4990376;28;20061;-68
2022/11/24 10:21:57;;;;;;;0.10;0.10;;;9.40;99.90;;;;;;5000659;28;20493;-68
2022/11/24 10:24:46;;;;;;;0.10;0.10;;;9.40;99.90;;;;;;4999204;28;20068;-68
2022/11/24 10:27:20;;;;;;;0.00;0.00;;;9.50;99.90;;;;;;5004992;28;20054;-68
2022/11/24 10:29:50;;;;;;;0.00;0.00;;;9.50;99.90;;;;;;5018446;28;20072;-68
2022/11/24 10:32:35;;;;;;;0.10;0.10;;;9.50;99.90;;;;;;5003074;28;20045;-68
2022/11/24 10:35:36;;;;;;;1.75;1.00;;;9.50;99.90;;;;;;5001002;28;20049;-68
2022/11/24 10:38:19;;;;;;;4.57;0.98;;;9.50;99.90;;;;;;4978243;28;20053;-68
2022/11/24 10:41:11;;;;;;;0.10;0.10;;;9.60;99.90;;;;;;4976594;28;20092;-68
2022/11/24 10:43:39;;;;;;;0.10;0.10;;;9.60;99.90;;;;;;5000382;28;20075;-68
2022/11/24 10:46:15;;;;;;;0.10;0.10;;;9.60;99.90;;;;;;5004889;28;20114;-68
2022/11/24 10:49:02;;;;;;;1.27;1.17;;;9.60;99.90;;;;;;5002086;28;20041;-67
2022/11/24 10:51:49;;;;;;;0.00;0.00;;;9.60;99.90;;;;;;5009225;28;20057;-66
2022/11/24 10:54:21;;;;;;;0.57;0.57;;;9.70;99.90;;;;;;4990478;28;20050;-67
2022/11/24 10:56:50;;;;;;;1.02;0.47;;;9.70;99.90;;;;;;5012248;28;20124;-67
2022/11/24 10:59:48;;;;;;;0.10;0.10;;;9.70;99.90;;;;;;5011567;28;20394;-66
2022/11/24 11:02:33;;;;;;;0.13;0.13;;;9.80;99.90;;;;;;4977699;28;20054;-67
2022/11/24 11:05:31;;;;;;;0.10;0.10;;;9.80;99.90;;;;;;5011263;28;20478;-66
2022/11/24 11:08:18;;;;;;;1.75;1.65;;;9.90;99.90;;;;;;4983514;28;20873;-66
2022/11/24 11:10:46;;;;;;;2.35;1.08;;;9.90;99.90;;;;;;5004558;28;20034;-66
2022/11/24 11:13:28;;;;;;;0.65;0.65;;;10.00;99.90;;;;;;5010586;28;20120;-67
2022/11/24 11:15:54;;;;;;;0.00;0.00;;;10.00;99.90;;;;;;5008329;28;20042;-67
2022/11/24 11:18:21;;;;;;;0.10;0.10;;;10.10;99.90;;;;;;4998140;28;20076;-67
2022/11/24 11:20:55;;;;;;;0.10;0.10;;;10.20;99.90;;;;;;5007718;28;20382;-67
2022/11/24 11:23:35;;;;;;;0.00;0.00;;;10.20;99.90;;;;;;5015736;28;20053;-67
2022/11/24 11:26:26;;;;;;;0.10;0.10;;;10.40;99.90;;;;;;5004406;28;20092;-69
2022/11/24 11:29:07;;;;;;;0.30;0.30;;;10.50;99.90;;;;;;5000342;28;20072;-67
2022/11/24 11:31:34;;;;;;;0.10;0.10;;;10.60;99.90;;;;;;5006177;28;20053;-67
2022/11/24 11:34:01;;;;;;;0.90;0.90;;;10.70;99.90;;;;;;4992430;28;20096;-67
2022/11/24 11:36:30;;;;;;;0.50;0.50;;;10.90;99.90;;;;;;5001490;28;20081;-67
2022/11/24 11:38:56;;;;;;;0.17;0.17;;;10.90;99.90;;;;;;4998344;28;20049;-66
2022/11/24 11:41:32;;;;;;;0.73;0.68;;;11.00;99.90;;;;;;4991262;28;20046;-66
2022/11/24 11:44:18;;;;;;;0.03;0.03;;;11.30;99.90;;;;;;5001743;28;20198;-66
2022/11/24 11:46:44;;;;;;;0.10;0.10;;;11.50;99.90;;;;;;4982664;28;20507;-66
2022/11/24 11:49:12;;;;;;;0.10;0.10;;;11.70;99.90;;;;;;5010919;28;20409;-67
2022/11/24 11:52:02;;;;;;;0.17;0.17;;;11.80;99.90;;;;;;5001438;28;20125;-67
2022/11/24 11:54:40;;;;;;;0.32;0.32;;;11.90;99.90;;;;;;4984660;28;20069;-66
2022/11/24 11:57:45;;;;;;;0.10;0.10;;;12.10;99.90;;;;;;5000447;28;20069;-66
2022/11/24 12:00:15;;;;;;;0.10;0.10;;;12.00;99.90;;;;;;4991941;28;20050;-67
2022/11/24 12:03:17;;;;;;;0.10;0.10;;;12.10;99.90;;;;;;5007774;28;20042;-67
2022/11/24 12:06:07;;;;;;;0.10;0.10;;;12.00;99.90;;;;;;4992380;28;20077;-67
2022/11/24 12:09:13;;;;;;;0.00;0.00;;;11.90;99.90;;;;;;5001502;28;20095;-66
2022/11/24 12:12:24;;;;;;;0.00;0.00;;;12.00;99.90;;;;;;5011083;28;20041;-66
2022/11/24 12:15:08;;;;;;;0.00;0.00;;;12.00;99.90;;;;;;5006389;28;20038;-67
2022/11/24 12:17:39;;;;;;;;;;;11.90;99.90;;;;;;5006092;28;20398;-65
2022/11/24 12:20:25;;;;;;;0.17;0.17;;;11.80;99.90;;;;;;4995807;28;20381;-66
2022/11/24 12:23:14;;;;;;;0.10;0.10;;;11.80;99.90;;;;;;5009238;28;20046;-66
2022/11/24 12:25:46;;;;;;;0.10;0.10;;;11.70;99.90;;;;;;5026150;28;20552;-67
2022/11/24 12:28:31;;;;;;;0.00;0.00;;;11.60;99.90;;;;;;5014844;28;20523;-67
2022/11/24 12:31:04;;;;;;;0.10;0.10;;;11.70;99.90;;;;;;5010952;28;20130;-67
2022/11/24 12:33:59;;;;;;;0.52;0.52;;;11.60;99.90;;;;;;5005957;28;20050;-67
2022/11/24 12:36:34;;;;;;;0.43;0.43;;;11.70;99.90;;;;;;5001884;28;20450;-67
2022/11/24 12:39:26;;;;;;;2.70;0.40;;;11.80;99.90;;;;;;5000085;28;20084;-67
2022/11/24 12:42:10;;;;;;;0.30;0.30;;;11.90;99.90;;;;;;4993149;28;20060;-66
2022/11/24 12:44:35;;;;;;;;;;;12.00;99.90;;;;;;5011781;28;20144;-67
2022/11/24 12:47:33;;;;;;;0.10;0.10;;;12.10;99.90;;;;;;5004983;28;20432;-66
2022/11/24 12:50:06;;;;;;;0.13;0.13;;;12.20;99.90;;;;;;4995873;28;20414;-67
2022/11/24 12:52:37;;;;;;;0.00;0.00;;;12.50;99.90;;;;;;5002331;28;20165;-67
2022/11/24 12:55:04;;;;;;;0.10;0.10;;;12.60;99.90;;;;;;5011586;28;20048;-67
2022/11/24 12:57:41;;;;;;;0.95;0.65;;;12.80;99.90;;;;;;5008998;28;20037;-67
2022/11/24 13:00:42;;;;;;;0.00;0.00;;;12.80;99.90;;;;;;5014672;28;20053;-66
2022/11/24 13:03:29;;;;;;;1.35;0.68;;;12.90;99.90;;;;;;5005401;28;20046;-67
2022/11/24 13:05:58;;;;;;;0.00;0.00;;;13.20;99.90;;;;;;5001391;28;20050;-67
2022/11/24 13:08:26;;;;;;;0.03;0.03;;;13.20;99.90;;;;;;5005302;28;20164;-67
2022/11/24 13:10:52;;;;;;;0.10;0.10;;;13.10;99.90;;;;;;5007336;28;20049;-67